Time;durP1;ratioP1;P1;durP2;ratioP2;P2;SDS_P1;SDS_P2;PMS_P1;PMS_P2;Temp;Humidity;BMP_temperature;BMP_pressure;BME280_temperature;BME280_humidity;BME280_pressure;Samples;Min_cycle;Max_cycle;Signal;HPM_P1;HPM_P2
2023/10/29 00:00:31;;;;;;;1.17;0.90;;;14.90;1.00;;;;;;4950668;28;20405;-86
2023/10/29 00:02:57;;;;;;;0.90;0.60;;;14.20;1.00;;;;;;4962670;28;20394;-86
2023/10/29 00:05:23;;;;;;;2.80;0.90;;;14.10;1.00;;;;;;4979553;28;20436;-86
2023/10/29 00:07:49;;;;;;;1.50;0.63;;;16.00;1.00;;;;;;4962543;29;20386;-87
2023/10/29 00:10:16;;;;;;;0.85;0.70;;;15.20;1.00;;;;;;4979649;28;20386;-87
2023/10/29 00:12:42;;;;;;;1.23;1.00;;;13.80;1.00;;;;;;4962518;29;20406;-87
2023/10/29 00:15:08;;;;;;;1.10;0.80;;;14.60;1.00;;;;;;4962480;28;20413;-87
2023/10/29 00:17:34;;;;;;;0.80;0.57;;;13.60;1.00;;;;;;4963651;28;20406;-87
2023/10/29 00:19:59;;;;;;;2.03;0.70;;;15.10;1.00;;;;;;4977565;28;20462;-87
2023/10/29 00:22:27;;;;;;;1.10;0.70;;;14.50;1.00;;;;;;4974330;28;20406;-87
2023/10/29 00:24:53;;;;;;;3.00;0.90;;;13.50;1.00;;;;;;4952493;29;20414;-87
2023/10/29 00:27:18;;;;;;;0.88;0.75;;;14.10;1.00;;;;;;4941297;29;20756;-87
2023/10/29 00:29:45;;;;;;;2.80;0.60;;;15.60;1.00;;;;;;4941187;29;20457;-87
2023/10/29 00:32:11;;;;;;;1.00;0.60;;;13.20;1.00;;;;;;4957576;28;20412;-87
2023/10/29 00:34:36;;;;;;;1.30;0.70;;;13.40;1.00;;;;;;4939608;29;20398;-87
2023/10/29 00:37:03;;;;;;;2.10;0.70;;;12.50;1.00;;;;;;4956096;29;20400;-86
2023/10/29 00:39:28;;;;;;;1.10;0.70;;;13.20;1.00;;;;;;4956258;28;20394;-86
2023/10/29 00:41:54;;;;;;;0.75;0.60;;;13.70;1.00;;;;;;4938544;29;20484;-86
2023/10/29 00:44:19;;;;;;;1.77;0.70;;;14.60;1.00;;;;;;4946483;28;20595;-86
2023/10/29 00:46:45;;;;;;;2.30;0.80;;;13.20;1.00;;;;;;4936139;29;20403;-87
2023/10/29 00:49:11;;;;;;;2.28;0.90;;;14.00;1.00;;;;;;4953183;29;20493;-86
2023/10/29 00:51:37;;;;;;;1.40;0.80;;;13.50;1.00;;;;;;4938631;29;20491;-86
2023/10/29 00:54:03;;;;;;;0.90;0.80;;;13.10;1.00;;;;;;4955525;28;20539;-86
2023/10/29 00:56:31;;;;;;;1.00;0.50;;;13.00;1.00;;;;;;4937818;29;20486;-87
2023/10/29 00:58:56;;;;;;;2.27;1.00;;;12.60;1.00;;;;;;4955535;28;20441;-87
2023/10/29 01:01:22;;;;;;;1.50;0.70;;;12.70;1.00;;;;;;4938381;29;20425;-86
2023/10/29 01:03:48;;;;;;;1.33;0.80;;;12.40;1.00;;;;;;4937847;29;20506;-88
2023/10/29 01:06:15;;;;;;;1.27;0.50;;;12.60;1.00;;;;;;4955550;28;20413;-88
2023/10/29 01:08:41;;;;;;;1.20;0.75;;;12.70;1.00;;;;;;4938125;29;20436;-88
2023/10/29 01:11:07;;;;;;;1.30;0.70;;;13.90;1.00;;;;;;4938789;29;20453;-87
2023/10/29 01:13:33;;;;;;;0.73;0.60;;;13.60;1.00;;;;;;4955892;28;20398;-88
2023/10/29 01:15:58;;;;;;;1.00;0.50;;;12.30;1.00;;;;;;4938527;29;20409;-88
2023/10/29 01:18:24;;;;;;;0.90;0.52;;;12.40;1.00;;;;;;4938656;29;20406;-87
2023/10/29 01:20:50;;;;;;;1.60;0.70;;;12.40;1.00;;;;;;4946265;28;20400;-87
2023/10/29 01:23:17;;;;;;;1.70;0.80;;;14.80;1.00;;;;;;4949526;29;20410;-89
2023/10/29 01:25:44;;;;;;;2.15;0.60;;;12.20;1.00;;;;;;4939224;29;20386;-88
2023/10/29 01:28:09;;;;;;;1.30;0.70;;;12.30;1.00;;;;;;4955905;29;20390;-87
2023/10/29 01:30:35;;;;;;;0.93;0.60;;;13.00;1.00;;;;;;4937096;29;20929;-88
2023/10/29 01:33:00;;;;;;;1.93;0.57;;;13.40;1.00;;;;;;4955106;28;20886;-87
2023/10/29 01:35:26;;;;;;;1.00;0.50;;;12.10;1.00;;;;;;4954105;29;20397;-87
2023/10/29 01:37:52;;;;;;;1.00;0.60;;;12.50;1.00;;;;;;4954222;29;20890;-88
2023/10/29 01:40:18;;;;;;;1.20;0.80;;;12.90;1.00;;;;;;4936867;29;20487;-89
2023/10/29 01:42:45;;;;;;;1.60;0.70;;;12.50;1.00;;;;;;4938032;29;20402;-88
2023/10/29 01:45:14;;;;;;;1.90;0.70;;;12.60;1.00;;;;;;4938515;29;20469;-88
2023/10/29 01:47:40;;;;;;;1.70;0.60;;;12.20;1.00;;;;;;4956357;29;20398;-88
2023/10/29 01:50:06;;;;;;;0.70;0.60;;;14.10;1.00;;;;;;4954316;28;20417;-88
2023/10/29 01:52:32;;;;;;;1.60;0.70;;;12.80;1.00;;;;;;4958770;29;20397;-86
2023/10/29 01:54:58;;;;;;;0.90;0.60;;;11.30;1.00;;;;;;4957913;29;20394;-87
2023/10/29 01:57:23;;;;;;;1.00;0.60;;;14.50;1.00;;;;;;4949352;28;20444;-87
2023/10/29 01:59:49;;;;;;;1.10;0.60;;;12.50;1.00;;;;;;4937445;29;20841;-87
2023/10/29 02:02:14;;;;;;;1.42;0.57;;;13.90;1.00;;;;;;4937877;29;20453;-87
2023/10/29 02:04:40;;;;;;;1.70;0.70;;;13.70;1.00;;;;;;4937213;29;20406;-88
2023/10/29 02:07:07;;;;;;;0.80;0.50;;;11.10;1.00;;;;;;4937428;28;20413;-88
2023/10/29 02:09:33;;;;;;;0.88;0.57;;;12.30;1.00;;;;;;4954103;28;20390;-87
2023/10/29 02:11:58;;;;;;;1.80;0.70;;;11.30;1.00;;;;;;4942238;29;20394;-87
2023/10/29 02:14:24;;;;;;;0.70;0.50;;;12.60;1.00;;;;;;4938765;29;20397;-87
2023/10/29 02:16:50;;;;;;;1.40;0.60;;;14.30;1.00;;;;;;4936987;29;20394;-85
2023/10/29 02:19:15;;;;;;;1.67;0.63;;;12.60;1.00;;;;;;4937488;29;20775;-87
2023/10/29 02:21:41;;;;;;;1.33;0.70;;;12.70;1.00;;;;;;4936544;29;20394;-87
2023/10/29 02:24:07;;;;;;;0.80;0.63;;;14.90;1.00;;;;;;4936317;29;20443;-88
2023/10/29 02:26:33;;;;;;;1.60;0.60;;;12.80;1.00;;;;;;4937009;29;20393;-87
2023/10/29 02:28:59;;;;;;;2.08;0.70;;;12.60;1.00;;;;;;4935488;29;20397;-87
2023/10/29 02:31:24;;;;;;;1.30;0.70;;;15.80;1.00;;;;;;4953817;28;20477;-87
2023/10/29 02:33:50;;;;;;;1.50;0.67;;;14.60;1.00;;;;;;4953855;28;20886;-87
2023/10/29 02:36:15;;;;;;;2.60;0.70;;;12.80;1.00;;;;;;4936968;29;20818;-87
2023/10/29 02:38:43;;;;;;;1.20;0.60;;;12.50;1.00;;;;;;4936221;29;21085;-87
2023/10/29 02:41:09;;;;;;;1.73;0.60;;;12.30;1.00;;;;;;4936901;29;20465;-86
2023/10/29 02:43:38;;;;;;;0.70;0.52;;;12.60;1.00;;;;;;4953420;28;20421;-87
2023/10/29 02:46:04;;;;;;;0.80;0.60;;;12.30;1.00;;;;;;4936759;29;20393;-87
2023/10/29 02:48:29;;;;;;;1.75;0.70;;;12.60;1.00;;;;;;4935961;29;20390;-87
2023/10/29 02:50:55;;;;;;;0.70;0.60;;;13.00;1.00;;;;;;4936673;29;20394;-87
2023/10/29 02:53:21;;;;;;;1.50;0.50;;;11.60;1.00;;;;;;4937019;29;20393;-87
2023/10/29 02:55:46;;;;;;;1.92;0.60;;;12.80;1.00;;;;;;4954062;28;20882;-88
2023/10/29 02:58:12;;;;;;;2.60;0.90;;;13.40;1.00;;;;;;4936365;29;20410;-87
2023/10/29 03:00:38;;;;;;;1.70;0.50;;;13.40;1.00;;;;;;4936084;29;20480;-86
2023/10/29 03:03:04;;;;;;;1.52;0.60;;;14.80;1.00;;;;;;4953529;28;20386;-87
2023/10/29 03:05:29;;;;;;;1.70;0.50;;;13.60;1.00;;;;;;4936352;29;20410;-86
2023/10/29 03:07:55;;;;;;;0.60;0.50;;;14.10;1.00;;;;;;4936553;29;20401;-87
2023/10/29 03:10:20;;;;;;;0.60;0.50;;;13.70;1.00;;;;;;4936668;29;20450;-87
2023/10/29 03:12:46;;;;;;;0.80;0.67;;;15.60;1.00;;;;;;4953706;29;20389;-87
2023/10/29 03:15:12;;;;;;;1.10;0.80;;;12.70;1.00;;;;;;4931662;28;20400;-86
2023/10/29 03:17:38;;;;;;;1.50;0.70;;;13.80;1.00;;;;;;4943599;28;20412;-87
2023/10/29 03:20:04;;;;;;;1.60;0.70;;;13.20;1.00;;;;;;4934591;28;20894;-87
2023/10/29 03:22:29;;;;;;;1.25;0.60;;;13.90;1.00;;;;;;4941993;28;20840;-87
2023/10/29 03:24:55;;;;;;;0.70;0.40;;;14.70;1.00;;;;;;4947902;28;20441;-86
2023/10/29 03:27:20;;;;;;;2.60;0.53;;;15.20;1.00;;;;;;4964814;28;20396;-86
2023/10/29 03:29:46;;;;;;;0.60;0.50;;;15.70;1.00;;;;;;4961194;28;20385;-87
2023/10/29 03:32:12;;;;;;;1.77;0.50;;;16.40;1.00;;;;;;4977238;28;20421;-87
2023/10/29 03:34:37;;;;;;;1.10;0.50;;;16.10;1.00;;;;;;4983809;28;20480;-86
2023/10/29 03:37:03;;;;;;;1.00;0.60;;;14.60;1.00;;;;;;4959337;28;20395;-87
2023/10/29 03:39:31;;;;;;;0.90;0.50;;;15.80;1.00;;;;;;4957646;28;20499;-86
2023/10/29 03:41:57;;;;;;;1.90;0.60;;;15.50;1.00;;;;;;4975019;28;20419;-86
2023/10/29 03:44:22;;;;;;;0.93;0.50;;;14.70;1.00;;;;;;4967695;28;20420;-87
2023/10/29 03:46:52;;;;;;;0.60;0.50;;;16.30;1.00;;;;;;4941016;29;20814;-87
2023/10/29 03:49:18;;;;;;;1.70;0.60;;;14.90;1.00;;;;;;4941728;29;20419;-86
2023/10/29 03:51:46;;;;;;;1.13;0.70;;;13.80;1.00;;;;;;4941238;29;20425;-86
2023/10/29 03:54:11;;;;;;;1.20;0.65;;;14.60;1.00;;;;;;4939787;29;20398;-86
2023/10/29 03:56:37;;;;;;;1.48;0.55;;;14.00;1.00;;;;;;4955949;29;20464;-86
2023/10/29 03:59:03;;;;;;;0.80;0.60;;;14.20;1.00;;;;;;4956263;28;20406;-86
2023/10/29 04:01:28;;;;;;;1.30;0.70;;;14.20;1.00;;;;;;4938876;29;20401;-87
2023/10/29 04:03:54;;;;;;;1.20;0.77;;;12.70;1.00;;;;;;4939146;29;20425;-86
2023/10/29 04:06:19;;;;;;;1.20;0.70;;;13.90;1.00;;;;;;4938488;29;20429;-87
2023/10/29 04:08:45;;;;;;;1.27;0.70;;;13.60;1.00;;;;;;4938541;29;20437;-86
2023/10/29 04:11:10;;;;;;;1.63;0.60;;;13.40;1.00;;;;;;4938471;29;20790;-86
2023/10/29 04:13:36;;;;;;;1.17;0.60;;;14.40;1.00;;;;;;4955907;28;20874;-86
2023/10/29 04:16:01;;;;;;;1.03;0.80;;;14.30;1.00;;;;;;4938325;29;20402;-86
2023/10/29 04:18:31;;;;;;;0.65;0.52;;;13.80;1.00;;;;;;4939359;29;20401;-87
2023/10/29 04:20:58;;;;;;;1.05;0.50;;;13.90;1.00;;;;;;4938505;29;20406;-86
2023/10/29 04:23:23;;;;;;;2.10;0.63;;;15.40;1.00;;;;;;4938849;29;20402;-87
2023/10/29 04:25:49;;;;;;;1.50;0.73;;;13.40;1.00;;;;;;4938196;29;20441;-86
2023/10/29 04:28:14;;;;;;;0.70;0.50;;;12.20;1.00;;;;;;4938306;29;20394;-87
2023/10/29 04:30:40;;;;;;;1.17;0.50;;;12.10;1.00;;;;;;4938395;28;20429;-86
2023/10/29 04:33:08;;;;;;;0.93;0.60;;;14.70;1.00;;;;;;4937489;29;20402;-87
2023/10/29 04:35:33;;;;;;;1.50;0.60;;;13.10;1.00;;;;;;4955825;28;20405;-87
2023/10/29 04:37:59;;;;;;;1.40;0.70;;;12.90;1.00;;;;;;4969987;28;20417;-87
2023/10/29 04:40:24;;;;;;;1.70;0.70;;;12.80;1.00;;;;;;4955648;29;20414;-87
2023/10/29 04:42:50;;;;;;;1.30;0.60;;;12.90;1.00;;;;;;4939028;29;20405;-87
2023/10/29 04:45:15;;;;;;;0.77;0.60;;;13.10;1.00;;;;;;4955768;28;20421;-87
2023/10/29 04:47:41;;;;;;;1.30;0.70;;;14.50;1.00;;;;;;4925369;29;20439;-87
2023/10/29 04:50:06;;;;;;;0.70;0.60;;;13.40;1.00;;;;;;4936378;29;20392;-87
2023/10/29 04:52:33;;;;;;;1.67;0.60;;;13.30;1.00;;;;;;4935020;29;20391;-87
2023/10/29 04:55:00;;;;;;;1.08;0.52;;;13.60;1.00;;;;;;4918757;29;20424;-87
2023/10/29 04:57:27;;;;;;;2.00;0.60;;;13.50;1.00;;;;;;4966371;23;20432;-83
2023/10/29 04:59:52;;;;;;;1.20;0.90;;;13.50;1.00;;;;;;4987156;28;20503;-83
2023/10/29 05:02:18;;;;;;;0.90;0.70;;;13.50;1.00;;;;;;4986783;28;20455;-84
2023/10/29 05:04:43;;;;;;;1.23;0.70;;;13.50;1.00;;;;;;4968912;28;20498;-84
2023/10/29 05:07:09;;;;;;;1.03;0.60;;;13.30;1.00;;;;;;4985860;28;20404;-83
2023/10/29 05:09:35;;;;;;;1.40;0.70;;;13.30;1.00;;;;;;4984880;28;20423;-83
2023/10/29 05:12:01;;;;;;;2.17;0.68;;;15.50;1.00;;;;;;4984350;28;21012;-84
2023/10/29 05:14:27;;;;;;;3.00;0.50;;;15.70;1.00;;;;;;4967867;28;20491;-84
2023/10/29 05:16:52;;;;;;;0.80;0.60;;;15.60;1.00;;;;;;4967852;28;20423;-84
2023/10/29 05:19:24;;;;;;;1.20;0.60;;;15.20;1.00;;;;;;4966655;28;20407;-84
2023/10/29 05:21:50;;;;;;;0.70;0.40;;;16.40;1.00;;;;;;4966956;28;20404;-85
2023/10/29 05:24:16;;;;;;;1.77;0.60;;;16.80;1.00;;;;;;4965816;28;20418;-84
2023/10/29 05:26:42;;;;;;;1.50;0.52;;;17.00;1.00;;;;;;4963845;28;20400;-84
2023/10/29 05:29:07;;;;;;;1.30;0.70;;;16.90;1.00;;;;;;4964087;28;20384;-83
2023/10/29 05:31:33;;;;;;;1.60;0.60;;;17.00;1.00;;;;;;4982586;28;20483;-83
2023/10/29 05:33:59;;;;;;;0.60;0.40;;;17.20;1.00;;;;;;4966800;28;20409;-84
2023/10/29 05:36:24;;;;;;;1.60;0.50;;;17.30;1.00;;;;;;4997173;28;20407;-84
2023/10/29 05:38:50;;;;;;;1.00;0.65;;;17.60;1.00;;;;;;4998438;28;20430;-84
2023/10/29 05:41:17;;;;;;;1.73;0.50;;;17.60;1.00;;;;;;4981433;28;20428;-83
2023/10/29 05:43:42;;;;;;;1.83;0.60;;;17.70;1.00;;;;;;4980764;28;20435;-85
2023/10/29 05:46:12;;;;;;;1.40;0.50;;;17.50;1.00;;;;;;4995552;28;20400;-85
2023/10/29 05:48:38;;;;;;;1.60;0.60;;;17.70;1.00;;;;;;4980197;28;20869;-85
2023/10/29 05:51:03;;;;;;;1.98;0.63;;;17.00;1.00;;;;;;4966545;28;20404;-84
2023/10/29 05:53:29;;;;;;;2.03;0.87;;;17.70;1.00;;;;;;4975876;28;20399;-84
2023/10/29 05:55:54;;;;;;;1.00;0.60;;;17.80;1.00;;;;;;4973816;28;20400;-84
2023/10/29 05:58:20;;;;;;;2.10;0.70;;;16.70;1.00;;;;;;4990988;28;20428;-84
2023/10/29 06:00:45;;;;;;;0.83;0.60;;;18.20;1.00;;;;;;4990829;28;20406;-85
2023/10/29 06:03:11;;;;;;;1.00;0.60;;;18.20;1.00;;;;;;4973992;28;20807;-84
2023/10/29 06:05:36;;;;;;;0.53;0.50;;;18.60;1.00;;;;;;4966502;28;20428;-84
2023/10/29 06:08:05;;;;;;;1.90;0.50;;;18.90;1.00;;;;;;4964295;28;20407;-84
2023/10/29 06:10:30;;;;;;;0.70;0.60;;;17.10;1.00;;;;;;4969117;28;20400;-83
2023/10/29 06:12:56;;;;;;;0.90;0.50;;;17.30;1.00;;;;;;4992524;28;20443;-84
2023/10/29 06:15:22;;;;;;;0.90;0.60;;;16.90;1.00;;;;;;4974572;28;20412;-85
2023/10/29 06:17:48;;;;;;;0.90;0.50;;;17.50;1.00;;;;;;4963532;28;20392;-84
2023/10/29 06:20:17;;;;;;;0.90;0.70;;;17.60;1.00;;;;;;4966331;28;20398;-85
2023/10/29 06:22:44;;;;;;;1.70;0.80;;;18.20;1.00;;;;;;4972758;28;20384;-84
2023/10/29 06:25:10;;;;;;;1.10;0.65;;;17.00;1.00;;;;;;4975384;28;20416;-85
2023/10/29 06:27:38;;;;;;;0.77;0.60;;;18.30;1.00;;;;;;4980575;28;20469;-84
2023/10/29 06:30:04;;;;;;;0.70;0.60;;;16.40;1.00;;;;;;4981281;28;20415;-85
2023/10/29 06:32:30;;;;;;;1.05;0.55;;;17.10;1.00;;;;;;4962971;28;20899;-85
2023/10/29 06:34:55;;;;;;;0.90;0.60;;;16.80;1.00;;;;;;4977987;28;20407;-84
2023/10/29 06:37:21;;;;;;;1.07;0.60;;;16.90;1.00;;;;;;4960547;28;20389;-85
2023/10/29 06:39:46;;;;;;;1.20;0.70;;;16.80;1.00;;;;;;4977981;28;20406;-85
2023/10/29 06:42:12;;;;;;;1.63;0.80;;;16.80;1.00;;;;;;4977169;28;20398;-85
2023/10/29 06:44:37;;;;;;;1.30;0.70;;;16.80;1.00;;;;;;4960215;28;20450;-85
2023/10/29 06:47:03;;;;;;;1.60;0.60;;;17.00;1.00;;;;;;4962905;28;20404;-85
2023/10/29 06:49:29;;;;;;;1.20;0.60;;;16.90;1.00;;;;;;4977974;28;20393;-84
2023/10/29 06:51:55;;;;;;;3.60;0.83;;;16.80;1.00;;;;;;4968993;28;20420;-85
2023/10/29 06:54:24;;;;;;;1.27;0.65;;;16.70;1.00;;;;;;4970834;28;20411;-85
2023/10/29 06:56:50;;;;;;;1.20;0.70;;;16.70;1.00;;;;;;4982124;28;20467;-84
2023/10/29 06:59:15;;;;;;;0.80;0.60;;;16.80;1.00;;;;;;4989190;28;20439;-85
2023/10/29 07:01:42;;;;;;;3.08;0.98;;;16.70;1.00;;;;;;4977883;28;20459;-85
2023/10/29 07:04:08;;;;;;;1.90;0.88;;;16.40;1.00;;;;;;4984436;28;20432;-83
2023/10/29 07:06:34;;;;;;;1.40;0.80;;;15.70;1.00;;;;;;4984571;28;20388;-84
2023/10/29 07:09:00;;;;;;;1.20;0.80;;;16.60;1.00;;;;;;4991919;28;20530;-85
2023/10/29 07:11:28;;;;;;;2.20;0.60;;;15.70;1.00;;;;;;4987836;28;20471;-85
2023/10/29 07:13:53;;;;;;;1.40;1.20;;;15.60;1.00;;;;;;4970048;28;20415;-83
2023/10/29 07:16:19;;;;;;;2.55;1.08;;;15.40;1.00;;;;;;4983122;28;20436;-83
2023/10/29 07:18:45;;;;;;;2.30;1.00;;;15.30;1.00;;;;;;4963246;28;20899;-83
2023/10/29 07:21:10;;;;;;;1.70;1.00;;;15.30;1.00;;;;;;4980460;28;20396;-83
2023/10/29 07:23:36;;;;;;;1.20;0.90;;;15.20;1.00;;;;;;4979996;28;20471;-83
2023/10/29 07:26:01;;;;;;;1.00;0.90;;;15.20;1.00;;;;;;4962809;28;20389;-83
2023/10/29 07:28:28;;;;;;;2.00;1.00;;;15.20;1.00;;;;;;4979815;28;20392;-83
2023/10/29 07:30:57;;;;;;;1.20;1.00;;;15.20;1.00;;;;;;4980226;28;20396;-83
2023/10/29 07:33:23;;;;;;;1.98;1.20;;;15.10;1.00;;;;;;4962569;28;20385;-83
2023/10/29 07:35:48;;;;;;;1.60;1.40;;;15.00;1.00;;;;;;4979846;28;20398;-84
2023/10/29 07:38:14;;;;;;;3.07;1.03;;;15.00;1.00;;;;;;4979442;28;20388;-83
2023/10/29 07:40:39;;;;;;;1.70;1.00;;;15.10;1.00;;;;;;4982330;28;20462;-84
2023/10/29 07:43:05;;;;;;;2.13;1.10;;;15.10;1.00;;;;;;4968006;28;20395;-85
2023/10/29 07:45:31;;;;;;;1.60;0.80;;;15.10;1.00;;;;;;4965463;28;20503;-85
2023/10/29 07:47:57;;;;;;;1.90;1.00;;;15.10;1.00;;;;;;4978455;28;20392;-86
2023/10/29 07:50:22;;;;;;;2.00;1.00;;;15.00;1.00;;;;;;4962228;28;21121;-86
2023/10/29 07:52:48;;;;;;;1.70;1.00;;;15.50;1.00;;;;;;4982669;28;20416;-86
2023/10/29 07:55:13;;;;;;;1.30;1.00;;;15.20;1.00;;;;;;4961325;28;20455;-85
2023/10/29 07:57:39;;;;;;;1.10;1.00;;;15.20;1.00;;;;;;4978645;28;20420;-83
2023/10/29 08:00:09;;;;;;;3.57;0.90;;;15.10;1.00;;;;;;4983237;28;20399;-85
2023/10/29 08:02:36;;;;;;;1.20;0.90;;;15.20;1.00;;;;;;4982635;28;20403;-85
2023/10/29 08:05:01;;;;;;;2.22;1.20;;;14.40;1.00;;;;;;4961956;28;20408;-84
2023/10/29 08:07:29;;;;;;;0.85;0.70;;;13.90;1.00;;;;;;4976948;28;20885;-84
2023/10/29 08:09:56;;;;;;;2.10;1.00;;;14.20;1.00;;;;;;4959559;28;20908;-85
2023/10/29 08:12:22;;;;;;;1.38;1.00;;;14.60;1.00;;;;;;4958822;28;20400;-85
2023/10/29 08:14:47;;;;;;;4.10;1.10;;;14.50;1.00;;;;;;4959467;28;20411;-85
2023/10/29 08:17:17;;;;;;;2.40;1.30;;;14.50;1.00;;;;;;4960290;28;20400;-84
2023/10/29 08:19:45;;;;;;;2.42;1.20;;;14.40;1.00;;;;;;4967403;28;20520;-84
2023/10/29 08:22:11;;;;;;;1.50;1.10;;;14.40;1.00;;;;;;4983857;28;20399;-83
2023/10/29 08:24:37;;;;;;;2.23;1.27;;;14.50;1.00;;;;;;4965451;28;20409;-85
2023/10/29 08:27:03;;;;;;;1.70;1.10;;;14.50;1.00;;;;;;4962853;28;20499;-85
2023/10/29 08:29:29;;;;;;;1.58;0.90;;;14.60;1.00;;;;;;4961796;28;20407;-85
2023/10/29 08:31:54;;;;;;;3.20;1.67;;;14.70;1.00;;;;;;4977810;28;20784;-85
2023/10/29 08:34:21;;;;;;;4.30;2.30;;;14.70;1.00;;;;;;4979118;28;20471;-85
2023/10/29 08:36:46;;;;;;;2.30;1.50;;;14.90;1.00;;;;;;4977839;28;20403;-85
2023/10/29 08:39:14;;;;;;;2.90;1.90;;;15.00;1.00;;;;;;4963465;28;20951;-85
2023/10/29 08:41:39;;;;;;;2.30;1.15;;;14.30;1.00;;;;;;4965746;28;20492;-85
2023/10/29 08:44:05;;;;;;;1.40;0.90;;;14.40;1.00;;;;;;4960775;28;20934;-85
2023/10/29 08:46:30;;;;;;;1.63;1.00;;;15.40;1.00;;;;;;4958159;28;20424;-85
2023/10/29 08:48:56;;;;;;;2.13;1.10;;;15.40;1.00;;;;;;4962018;28;20392;-84
2023/10/29 08:51:24;;;;;;;3.20;1.30;;;15.50;1.00;;;;;;4976280;28;20457;-85
2023/10/29 08:53:50;;;;;;;2.50;1.10;;;15.50;1.00;;;;;;4979482;28;20860;-85
2023/10/29 08:56:18;;;;;;;1.00;0.70;;;15.80;1.00;;;;;;4980292;28;20400;-85
2023/10/29 08:58:44;;;;;;;1.43;0.57;;;16.80;1.00;;;;;;4980606;28;20498;-83
2023/10/29 09:01:12;;;;;;;1.60;0.60;;;17.60;1.00;;;;;;4980838;28;20487;-84
2023/10/29 09:03:38;;;;;;;1.50;0.52;;;18.50;1.00;;;;;;4957928;28;20519;-84
2023/10/29 09:06:04;;;;;;;0.70;0.60;;;17.70;1.00;;;;;;4959272;28;20400;-84
2023/10/29 09:08:32;;;;;;;2.60;0.60;;;18.10;1.00;;;;;;4957858;28;20984;-85
2023/10/29 09:10:58;;;;;;;0.80;0.60;;;17.90;1.00;;;;;;4977063;28;20495;-84
2023/10/29 09:13:24;;;;;;;1.00;0.70;;;18.60;1.00;;;;;;4977272;28;20416;-84
2023/10/29 09:15:49;;;;;;;1.00;0.70;;;18.00;1.00;;;;;;4984940;28;20392;-83
2023/10/29 09:18:16;;;;;;;1.20;0.50;;;19.00;1.00;;;;;;4990202;28;20520;-83
2023/10/29 09:20:46;;;;;;;0.75;0.52;;;19.10;1.00;;;;;;4991360;28;20389;-83
2023/10/29 09:23:12;;;;;;;1.40;0.60;;;19.00;1.00;;;;;;4979489;28;20398;-84
2023/10/29 09:25:38;;;;;;;1.40;0.50;;;19.20;1.00;;;;;;4961038;28;20412;-83
2023/10/29 09:28:05;;;;;;;1.70;0.50;;;19.40;1.00;;;;;;4979378;28;20443;-84
2023/10/29 09:30:31;;;;;;;0.80;0.50;;;19.50;1.00;;;;;;4985058;28;20489;-85
2023/10/29 09:32:56;;;;;;;1.20;0.50;;;20.20;1.00;;;;;;4975832;28;20396;-84
2023/10/29 09:35:22;;;;;;;0.50;0.40;;;19.40;1.00;;;;;;4979623;28;20404;-82
2023/10/29 09:37:47;;;;;;;1.10;0.50;;;19.60;1.00;;;;;;4978504;28;20447;-83
2023/10/29 09:40:15;;;;;;;1.30;0.60;;;20.30;1.00;;;;;;4959834;28;20400;-84
2023/10/29 09:42:54;;;;;;;1.40;0.63;;;19.90;1.00;;;;;;4980011;28;20417;-85
2023/10/29 09:45:27;;;;;;;2.70;0.70;;;20.10;1.00;;;;;;4978597;28;20411;-83
2023/10/29 09:47:59;;;;;;;0.85;0.52;;;20.00;1.00;;;;;;4959540;28;20920;-84
2023/10/29 09:50:25;;;;;;;1.15;0.60;;;19.20;1.00;;;;;;4977252;28;20873;-85
2023/10/29 09:52:53;;;;;;;1.38;0.73;;;20.50;1.00;;;;;;4979041;28;20400;-82
2023/10/29 09:55:22;;;;;;;1.15;0.60;;;19.30;1.00;;;;;;4961687;28;20415;-84
2023/10/29 09:57:49;;;;;;;2.00;0.50;;;20.10;1.00;;;;;;4978361;28;20465;-84
2023/10/29 10:00:15;;;;;;;2.30;0.70;;;20.60;1.00;;;;;;4958674;28;20411;-84
2023/10/29 10:02:55;;;;;;;0.90;0.50;;;20.30;1.00;;;;;;4959317;28;20451;-85
2023/10/29 10:05:23;;;;;;;1.90;0.70;;;20.00;1.00;;;;;;4974867;28;20408;-85
2023/10/29 10:07:50;;;;;;;2.40;0.60;;;20.50;1.00;;;;;;4958949;28;20395;-85
2023/10/29 10:10:16;;;;;;;0.70;0.50;;;20.40;1.00;;;;;;4975378;28;20388;-82
2023/10/29 10:12:46;;;;;;;1.20;0.83;;;20.40;1.00;;;;;;4975540;28;20418;-83
2023/10/29 10:15:13;;;;;;;2.65;0.50;;;21.10;1.00;;;;;;4974233;28;20391;-83
2023/10/29 10:17:44;;;;;;;1.83;0.40;;;20.70;1.00;;;;;;4975984;28;20420;-82
2023/10/29 10:20:12;;;;;;;1.42;0.50;;;21.00;1.00;;;;;;4956376;28;20400;-83
2023/10/29 10:22:38;;;;;;;2.42;0.63;;;20.30;1.00;;;;;;4959689;28;20442;-85
2023/10/29 10:25:04;;;;;;;1.37;0.50;;;20.90;1.00;;;;;;4976658;28;20451;-83
2023/10/29 10:27:30;;;;;;;0.90;0.60;;;20.40;1.00;;;;;;4975207;28;20392;-84
2023/10/29 10:29:55;;;;;;;0.90;0.65;;;20.70;1.00;;;;;;4958050;28;20900;-83
2023/10/29 10:32:26;;;;;;;1.03;0.50;;;20.50;1.00;;;;;;4961510;28;20388;-85
2023/10/29 10:34:52;;;;;;;0.90;0.50;;;21.10;1.00;;;;;;4961503;28;20483;-86
2023/10/29 10:37:17;;;;;;;1.10;0.50;;;20.60;1.00;;;;;;4962311;28;20439;-85
2023/10/29 10:39:43;;;;;;;1.25;0.52;;;20.50;1.00;;;;;;4961876;28;20834;-84
2023/10/29 10:42:09;;;;;;;1.40;0.50;;;20.50;1.00;;;;;;4979282;28;20891;-85
2023/10/29 10:44:36;;;;;;;1.10;0.60;;;20.60;1.00;;;;;;4967043;28;20415;-85
2023/10/29 10:47:03;;;;;;;0.90;0.50;;;20.50;1.00;;;;;;4964551;28;20384;-86
2023/10/29 10:49:31;;;;;;;1.90;0.60;;;20.50;1.00;;;;;;4964418;28;20392;-85
2023/10/29 10:51:59;;;;;;;1.52;0.52;;;21.10;1.00;;;;;;4990243;28;20820;-86
2023/10/29 10:54:26;;;;;;;1.25;0.60;;;19.80;1.00;;;;;;4964964;28;20462;-86
2023/10/29 10:56:53;;;;;;;1.75;0.88;;;19.90;1.00;;;;;;4961898;28;20482;-85
2023/10/29 10:59:20;;;;;;;1.30;0.60;;;20.60;1.00;;;;;;4961529;28;20404;-85
2023/10/29 11:01:46;;;;;;;0.80;0.52;;;20.70;1.00;;;;;;4976990;28;20414;-86
2023/10/29 11:04:12;;;;;;;0.98;0.40;;;19.70;1.00;;;;;;4989661;28;20511;-87
2023/10/29 11:06:42;;;;;;;1.10;0.50;;;22.70;1.00;;;;;;4987044;28;20408;-86
2023/10/29 11:09:12;;;;;;;2.10;0.60;;;21.90;1.00;;;;;;4982752;28;20420;-85
2023/10/29 11:11:43;;;;;;;0.80;0.50;;;21.00;1.00;;;;;;4983306;28;20392;-84
2023/10/29 11:14:14;;;;;;;1.10;0.60;;;22.40;1.00;;;;;;4981774;28;20986;-87
2023/10/29 11:16:57;;;;;;;0.85;0.50;;;21.50;1.00;;;;;;4965885;28;20440;-86
2023/10/29 11:19:46;;;;;;;0.90;0.60;;;21.50;1.00;;;;;;4983191;28;20392;-86
2023/10/29 11:22:22;;;;;;;0.90;0.55;;;22.30;1.00;;;;;;4962222;28;20400;-86
2023/10/29 11:25:08;;;;;;;0.95;0.60;;;21.20;1.00;;;;;;4961503;28;20451;-85
2023/10/29 11:27:38;;;;;;;1.40;0.50;;;21.90;1.00;;;;;;4963174;28;20402;-85
2023/10/29 11:30:17;;;;;;;0.80;0.50;;;21.00;1.00;;;;;;4992323;28;20467;-85
2023/10/29 11:32:43;;;;;;;1.70;0.60;;;21.00;1.00;;;;;;4999818;28;20472;-86
2023/10/29 11:35:19;;;;;;;1.92;0.60;;;20.50;1.00;;;;;;4999776;28;20396;-88
2023/10/29 11:37:46;;;;;;;1.77;0.57;;;21.00;1.00;;;;;;4982116;28;20402;-86
2023/10/29 11:40:30;;;;;;;2.30;0.50;;;21.00;1.00;;;;;;4988397;28;20511;-85
2023/10/29 11:43:13;;;;;;;1.33;0.40;;;21.00;1.00;;;;;;4985622;28;20392;-85
2023/10/29 11:45:39;;;;;;;1.48;0.50;;;20.80;1.00;;;;;;4946937;29;20520;-84
2023/10/29 11:48:08;;;;;;;1.60;0.70;;;20.80;1.00;;;;;;4981997;28;20459;-85
2023/10/29 11:50:34;;;;;;;1.00;0.60;;;19.60;1.00;;;;;;4985365;28;20391;-84
2023/10/29 11:52:59;;;;;;;0.70;0.50;;;19.60;1.00;;;;;;4984382;28;20388;-88
2023/10/29 11:55:27;;;;;;;0.73;0.50;;;20.70;1.00;;;;;;4985603;28;20768;-85
2023/10/29 11:57:54;;;;;;;0.82;0.43;;;21.00;1.00;;;;;;4995223;28;20419;-87
2023/10/29 12:00:21;;;;;;;1.10;0.57;;;20.80;1.00;;;;;;4977830;28;20392;-86
2023/10/29 12:02:48;;;;;;;1.50;0.60;;;20.80;1.00;;;;;;4977946;28;20404;-86
2023/10/29 12:05:15;;;;;;;1.08;0.45;;;20.80;1.00;;;;;;4978571;28;20399;-85
2023/10/29 12:07:41;;;;;;;0.75;0.60;;;20.70;1.00;;;;;;4980807;28;20432;-84
2023/10/29 12:10:07;;;;;;;0.90;0.55;;;20.70;1.00;;;;;;4979788;28;20384;-84
2023/10/29 12:12:33;;;;;;;1.08;0.50;;;20.80;1.00;;;;;;4996867;28;20372;-83
2023/10/29 12:14:59;;;;;;;0.80;0.47;;;22.50;1.00;;;;;;4991940;28;20384;-85
2023/10/29 12:17:27;;;;;;;1.30;0.50;;;20.80;1.00;;;;;;4966573;28;20392;-85
2023/10/29 12:19:52;;;;;;;0.70;0.50;;;21.40;1.00;;;;;;4964755;28;20412;-84
2023/10/29 12:22:27;;;;;;;1.10;0.60;;;21.40;1.00;;;;;;4964927;28;20385;-84
2023/10/29 12:25:00;;;;;;;1.00;0.60;;;21.40;1.00;;;;;;4982697;28;20470;-87
2023/10/29 12:27:27;;;;;;;0.70;0.52;;;21.50;1.00;;;;;;4981604;28;20416;-85
2023/10/29 12:29:52;;;;;;;1.70;0.70;;;21.60;1.00;;;;;;4960771;28;20423;-85
2023/10/29 12:32:23;;;;;;;0.80;0.50;;;22.00;1.00;;;;;;4960504;28;20389;-85
2023/10/29 12:34:54;;;;;;;0.90;0.50;;;22.30;1.00;;;;;;4963288;28;20392;-85
2023/10/29 12:37:26;;;;;;;0.90;0.50;;;22.30;1.00;;;;;;4980975;28;20402;-85
2023/10/29 12:39:55;;;;;;;1.50;0.50;;;22.10;1.00;;;;;;4961826;28;20396;-84
2023/10/29 12:42:41;;;;;;;1.80;0.60;;;22.00;1.00;;;;;;4961545;28;20454;-86
2023/10/29 12:45:08;;;;;;;0.70;0.40;;;21.70;1.00;;;;;;4960812;28;20428;-87
2023/10/29 12:47:34;;;;;;;1.20;0.50;;;21.50;1.00;;;;;;4958797;28;20404;-85
2023/10/29 12:50:04;;;;;;;0.80;0.65;;;21.40;1.00;;;;;;4959899;28;20761;-84
2023/10/29 12:52:30;;;;;;;0.82;0.50;;;21.10;1.00;;;;;;4961061;28;20400;-85
2023/10/29 12:54:57;;;;;;;1.00;0.70;;;20.50;1.00;;;;;;4978544;28;20403;-85